createdAt,value
2023-03-17T00:00:17.622Z,26.33
2023-03-17T00:03:05.808Z,31.97
2023-03-17T00:05:35.688Z,27.77
2023-03-17T00:08:33.386Z,37.27
2023-03-17T00:11:01.174Z,24.17
2023-03-17T00:13:30.527Z,29.43
2023-03-17T00:16:04.029Z,32.47
2023-03-17T00:18:33.486Z,27.50
2023-03-17T00:21:00.635Z,39.60
2023-03-17T00:23:27.956Z,36.90
2023-03-17T00:25:54.954Z,29.07
2023-03-17T00:28:27.342Z,32.57
2023-03-17T00:30:59.608Z,45.73
2023-03-17T00:33:29.070Z,39.07
2023-03-17T00:35:58.629Z,38.33
2023-03-17T00:38:26.053Z,42.17
2023-03-17T00:40:53.018Z,39.50
2023-03-17T00:43:20.685Z,38.33
2023-03-17T00:45:48.352Z,42.93
2023-03-17T00:48:21.431Z,41.63
2023-03-17T00:50:49.875Z,39.57
2023-03-17T00:53:19.441Z,37.90
2023-03-17T00:55:46.918Z,47.53
2023-03-17T00:58:33.574Z,36.37
2023-03-17T01:01:01.456Z,36.20
2023-03-17T01:03:28.976Z,37.10
2023-03-17T01:05:59.639Z,42.97
2023-03-17T01:08:28.759Z,47.90
2023-03-17T01:10:56.709Z,43.47
2023-03-17T01:13:24.594Z,47.77
2023-03-17T01:15:52.577Z,55.60
2023-03-17T01:18:22.932Z,47.93
2023-03-17T01:20:50.697Z,43.00
2023-03-17T01:23:18.394Z,49.33
2023-03-17T01:25:45.576Z,45.73
2023-03-17T01:28:18.179Z,42.80
2023-03-17T01:30:45.748Z,44.30
2023-03-17T01:33:14.625Z,50.80
2023-03-17T01:35:43.819Z,51.33
2023-03-17T01:38:11.553Z,48.70
2023-03-17T01:40:45.235Z,44.40
2023-03-17T01:43:12.425Z,48.13
2023-03-17T01:46:17.238Z,40.40
2023-03-17T01:48:49.964Z,44.27
2023-03-17T01:51:23.581Z,52.87
2023-03-17T01:53:53.685Z,59.33
2023-03-17T01:56:21.730Z,51.20
2023-03-17T01:58:52.048Z,48.23
2023-03-17T02:01:24.187Z,48.60
2023-03-17T02:03:53.560Z,53.80
2023-03-17T02:06:20.626Z,60.50
2023-03-17T02:08:47.854Z,49.97
2023-03-17T02:11:15.377Z,52.63
2023-03-17T02:13:44.706Z,52.43
2023-03-17T02:16:16.575Z,61.43
2023-03-17T02:18:44.977Z,65.53
2023-03-17T02:21:31.453Z,64.93
2023-03-17T02:24:02.489Z,66.40
2023-03-17T02:26:33.414Z,64.73
2023-03-17T02:29:00.749Z,63.87
2023-03-17T02:31:28.379Z,59.67
2023-03-17T02:33:56.241Z,62.43
2023-03-17T02:36:24.067Z,64.43
2023-03-17T02:38:53.090Z,72.63
2023-03-17T02:41:20.216Z,66.07
2023-03-17T02:43:47.718Z,89.20
2023-03-17T02:46:14.768Z,68.17
2023-03-17T02:48:42.870Z,69.43
2023-03-17T02:51:09.903Z,72.87
2023-03-17T02:53:37.196Z,75.20
2023-03-17T02:56:04.374Z,71.30
2023-03-17T02:58:31.759Z,56.57
2023-03-17T03:00:58.718Z,63.73
2023-03-17T03:03:25.988Z,68.73
2023-03-17T03:05:53.134Z,67.60
2023-03-17T03:08:20.751Z,82.73
2023-03-17T03:10:47.733Z,67.87
2023-03-17T03:13:15.027Z,70.17
2023-03-17T03:15:43.481Z,70.40
2023-03-17T03:18:10.816Z,62.53
2023-03-17T03:20:37.774Z,67.30
2023-03-17T03:23:05.249Z,72.17
2023-03-17T03:25:32.197Z,78.20
2023-03-17T03:27:59.500Z,74.73
2023-03-17T03:30:27.077Z,71.00
2023-03-17T03:32:54.304Z,72.73
2023-03-17T03:35:21.610Z,69.37
2023-03-17T03:37:48.856Z,72.73
2023-03-17T03:40:16.140Z,76.50
2023-03-17T03:42:43.569Z,72.77
2023-03-17T03:45:11.036Z,74.63
2023-03-17T03:47:38.209Z,75.83
2023-03-17T03:50:05.679Z,71.20
2023-03-17T03:52:33.329Z,82.73
2023-03-17T03:55:00.331Z,80.93
2023-03-17T03:57:27.149Z,71.20
2023-03-17T03:59:54.388Z,80.30
2023-03-17T04:02:21.367Z,76.07
2023-03-17T04:04:49.038Z,76.70
2023-03-17T04:07:16.408Z,73.83
2023-03-17T04:09:43.603Z,61.30
2023-03-17T04:12:11.211Z,69.67
2023-03-17T04:14:38.453Z,70.83
2023-03-17T04:17:05.409Z,66.20
2023-03-17T04:19:32.686Z,81.33
2023-03-17T04:21:59.573Z,67.37
2023-03-17T04:24:27.746Z,68.77
2023-03-17T04:26:55.388Z,64.20
2023-03-17T04:29:22.881Z,74.57
2023-03-17T04:31:49.865Z,69.23
2023-03-17T04:34:18.747Z,68.77
2023-03-17T04:36:47.552Z,77.30
2023-03-17T04:39:15.796Z,75.27
2023-03-17T04:41:42.770Z,71.07
2023-03-17T04:44:09.939Z,69.50
2023-03-17T04:46:36.969Z,83.07
2023-03-17T04:49:04.609Z,68.27
2023-03-17T04:51:31.807Z,58.67
2023-03-17T04:53:59.162Z,64.87
2023-03-17T04:56:26.125Z,65.07
2023-03-17T04:58:53.467Z,61.97
2023-03-17T05:01:21.778Z,70.70
2023-03-17T05:03:49.252Z,61.67
2023-03-17T05:06:16.693Z,61.30
2023-03-17T05:08:45.060Z,77.20
2023-03-17T05:11:13.629Z,57.13
2023-03-17T05:13:41.184Z,63.03
2023-03-17T05:16:09.346Z,62.70
2023-03-17T05:18:37.513Z,64.30
2023-03-17T05:21:06.396Z,59.43
2023-03-17T05:23:35.153Z,68.07
2023-03-17T05:26:02.540Z,62.37
2023-03-17T05:28:29.830Z,63.13
2023-03-17T05:30:56.938Z,60.50
2023-03-17T05:33:24.565Z,55.97
2023-03-17T05:35:52.460Z,61.57
2023-03-17T05:38:19.837Z,70.83
2023-03-17T05:40:50.183Z,60.77
2023-03-17T05:43:18.032Z,50.63
2023-03-17T05:45:45.603Z,62.63
2023-03-17T05:48:13.225Z,53.43
2023-03-17T05:50:41.789Z,61.07
2023-03-17T05:53:09.490Z,58.07
2023-03-17T05:55:36.555Z,63.00
2023-03-17T05:58:05.191Z,65.77
2023-03-17T06:00:32.695Z,65.23
2023-03-17T06:03:00.111Z,60.40
2023-03-17T06:05:27.271Z,66.10
2023-03-17T06:07:56.473Z,71.87
2023-03-17T06:10:24.664Z,71.50
2023-03-17T06:12:52.263Z,66.63
2023-03-17T06:15:20.060Z,69.83
2023-03-17T06:17:47.634Z,66.13
2023-03-17T06:20:15.129Z,55.40
2023-03-17T06:23:00.398Z,45.33
2023-03-17T06:25:30.130Z,41.40
2023-03-17T06:27:57.740Z,40.77
2023-03-17T06:30:25.166Z,39.33
2023-03-17T06:32:52.297Z,46.10
2023-03-17T06:35:19.683Z,38.57
2023-03-17T06:37:46.893Z,43.17
2023-03-17T06:40:14.757Z,35.43
2023-03-17T06:42:42.145Z,40.03
2023-03-17T06:45:09.925Z,37.03
2023-03-17T06:47:37.416Z,36.57
2023-03-17T06:50:05.901Z,35.10
2023-03-17T06:52:32.926Z,29.10
2023-03-17T06:55:00.438Z,32.20
2023-03-17T06:57:27.739Z,33.63
2023-03-17T06:59:54.977Z,34.70
2023-03-17T07:02:21.978Z,32.63
2023-03-17T07:04:49.862Z,29.63
2023-03-17T07:07:17.004Z,30.47
2023-03-17T07:09:45.233Z,30.77
2023-03-17T07:12:12.294Z,33.87
2023-03-17T07:14:39.704Z,38.50
2023-03-17T07:17:06.990Z,40.30
2023-03-17T07:19:35.111Z,31.43
2023-03-17T07:22:02.150Z,35.80
2023-03-17T07:24:29.467Z,38.33
2023-03-17T07:26:56.465Z,31.60
2023-03-17T07:29:24.100Z,30.60
2023-03-17T07:31:51.289Z,32.60
2023-03-17T07:34:18.631Z,31.50
2023-03-17T07:36:45.743Z,33.23
2023-03-17T07:39:13.102Z,28.03
2023-03-17T07:41:40.303Z,35.10
2023-03-17T07:44:09.630Z,33.03
2023-03-17T07:46:36.996Z,30.00
2023-03-17T07:49:04.557Z,28.90
2023-03-17T07:51:31.564Z,28.33
2023-03-17T07:54:03.750Z,29.87
2023-03-17T07:56:32.690Z,30.17
2023-03-17T07:59:00.179Z,35.13
2023-03-17T08:01:27.961Z,29.40
2023-03-17T08:03:56.593Z,27.90
2023-03-17T08:06:27.182Z,28.93
2023-03-17T08:08:55.273Z,32.90
2023-03-17T08:11:23.424Z,26.03
2023-03-17T08:13:51.058Z,24.70
2023-03-17T08:16:18.287Z,35.90
2023-03-17T08:18:45.617Z,24.77
2023-03-17T08:21:14.767Z,24.60
2023-03-17T08:23:43.260Z,22.17
2023-03-17T08:26:10.660Z,27.53
2023-03-17T08:28:38.340Z,28.97
2023-03-17T08:31:17.320Z,24.33
2023-03-17T08:33:50.573Z,21.87
2023-03-17T08:36:19.538Z,30.10
2023-03-17T08:38:48.139Z,25.23
2023-03-17T08:41:18.830Z,25.53
2023-03-17T08:43:47.375Z,22.27
2023-03-17T08:46:20.368Z,23.23
2023-03-17T08:48:49.523Z,24.23
2023-03-17T08:51:18.696Z,22.93
2023-03-17T08:53:47.172Z,21.47
2023-03-17T08:56:54.060Z,25.10
2023-03-17T08:59:41.288Z,17.87
2023-03-17T09:02:30.704Z,20.00
2023-03-17T09:04:58.077Z,18.93
2023-03-17T09:07:25.391Z,17.93
2023-03-17T09:09:52.652Z,18.83
2023-03-17T09:12:19.688Z,18.27
2023-03-17T09:14:48.132Z,16.87
2023-03-17T09:17:16.532Z,15.97
2023-03-17T09:19:43.930Z,22.77
2023-03-17T09:22:14.267Z,16.60
2023-03-17T09:24:42.131Z,17.70
2023-03-17T09:27:09.237Z,19.33
2023-03-17T09:29:36.714Z,16.50
2023-03-17T09:32:04.086Z,17.57
2023-03-17T09:34:31.545Z,19.87
2023-03-17T09:36:59.831Z,15.37
2023-03-17T09:39:27.558Z,14.27
2023-03-17T09:42:10.064Z,12.93
2023-03-17T09:44:47.785Z,14.47
2023-03-17T09:47:29.958Z,13.73
2023-03-17T09:50:04.436Z,13.17
2023-03-17T09:52:34.547Z,11.77
2023-03-17T09:55:05.336Z,13.63
2023-03-17T09:57:40.515Z,12.17
2023-03-17T10:00:18.544Z,12.87
2023-03-17T10:02:46.203Z,12.20
2023-03-17T10:05:19.636Z,10.67
2023-03-17T10:08:01.773Z,19.03
2023-03-17T10:10:37.300Z,11.37
2023-03-17T10:13:17.086Z,12.93
2023-03-17T10:16:09.907Z,12.30
2023-03-17T10:18:49.489Z,10.13
2023-03-17T10:21:22.600Z,10.23
2023-03-17T10:23:50.527Z,8.93
2023-03-17T10:26:27.230Z,13.97
2023-03-17T10:28:54.970Z,12.10
2023-03-17T10:31:33.275Z,7.87
2023-03-17T10:34:16.330Z,10.17
2023-03-17T10:36:51.022Z,9.47
2023-03-17T10:39:20.512Z,9.17
2023-03-17T10:42:11.347Z,6.83
2023-03-17T10:44:48.454Z,13.90
2023-03-17T10:47:40.672Z,14.30
2023-03-17T10:50:35.131Z,12.20
2023-03-17T10:53:19.993Z,10.33
2023-03-17T10:55:52.710Z,14.63
2023-03-17T10:58:25.491Z,11.10
2023-03-17T11:00:57.816Z,11.43
2023-03-17T11:03:29.272Z,12.13
2023-03-17T11:06:04.081Z,11.17
2023-03-17T11:08:35.588Z,16.30
2023-03-17T11:11:07.656Z,11.97
2023-03-17T11:13:35.070Z,14.10
2023-03-17T11:16:24.117Z,11.60
2023-03-17T11:18:57.962Z,11.10
2023-03-17T11:21:30.578Z,11.00
2023-03-17T11:24:16.032Z,12.77
2023-03-17T11:26:49.567Z,9.10
2023-03-17T11:29:35.823Z,8.07
2023-03-17T11:32:11.638Z,14.83
2023-03-17T11:34:45.428Z,11.03
2023-03-17T11:37:29.790Z,13.33
2023-03-17T11:40:07.836Z,11.07
2023-03-17T11:43:06.828Z,14.33
2023-03-17T11:45:44.430Z,12.07
2023-03-17T11:48:22.394Z,13.77
2023-03-17T11:51:05.271Z,10.87
2023-03-17T11:53:35.060Z,15.13
2023-03-17T11:56:10.654Z,11.10
2023-03-17T11:58:48.282Z,11.87
2023-03-17T12:01:29.770Z,15.20
2023-03-17T12:04:18.477Z,15.37
2023-03-17T12:06:52.414Z,15.53
2023-03-17T12:09:47.767Z,10.30
2023-03-17T12:12:22.399Z,16.63
2023-03-17T12:14:53.359Z,12.50
2023-03-17T12:17:35.861Z,13.70
2023-03-17T12:20:31.637Z,14.63
2023-03-17T12:23:14.437Z,17.97
2023-03-17T12:25:57.796Z,21.03
2023-03-17T12:28:31.319Z,12.40
2023-03-17T12:31:12.859Z,14.57
2023-03-17T12:33:55.149Z,16.37
2023-03-17T12:36:22.748Z,19.53
2023-03-17T12:39:10.280Z,16.10
2023-03-17T12:42:08.840Z,15.60
2023-03-17T12:44:44.200Z,12.73
2023-03-17T12:47:32.557Z,16.10
2023-03-17T12:50:31.793Z,14.03
2023-03-17T12:53:28.165Z,13.03
2023-03-17T12:56:01.291Z,15.33
2023-03-17T12:58:40.469Z,16.93
2023-03-17T13:01:37.359Z,12.00
2023-03-17T13:04:13.386Z,12.77
2023-03-17T13:06:54.929Z,16.87
2023-03-17T13:09:37.305Z,13.93
2023-03-17T13:12:06.939Z,14.27
2023-03-17T13:14:46.943Z,17.73
2023-03-17T13:17:17.414Z,16.40
2023-03-17T13:19:59.624Z,10.73
2023-03-17T13:23:08.661Z,11.47
2023-03-17T13:25:53.386Z,10.97
2023-03-17T13:28:43.044Z,9.97
2023-03-17T13:31:27.517Z,13.20
2023-03-17T13:34:19.509Z,15.17
2023-03-17T13:37:05.471Z,12.87
2023-03-17T13:39:32.725Z,11.63
2023-03-17T13:42:20.971Z,13.57
2023-03-17T13:45:06.374Z,14.13
2023-03-17T13:47:35.512Z,12.53
2023-03-17T13:50:24.845Z,16.83
2023-03-17T13:53:03.151Z,15.60
2023-03-17T13:55:39.829Z,16.87
2023-03-17T13:58:09.208Z,18.40
2023-03-17T14:01:09.095Z,17.20
2023-03-17T14:04:18.846Z,14.13
2023-03-17T14:07:06.973Z,16.03
2023-03-17T14:09:57.444Z,14.60
2023-03-17T14:13:02.808Z,14.83
2023-03-17T14:15:56.860Z,13.60
2023-03-17T14:18:33.438Z,13.63
2023-03-17T14:22:00.786Z,20.17
2023-03-17T14:24:55.112Z,14.87
2023-03-17T14:27:45.392Z,12.20
2023-03-17T14:30:22.687Z,13.07
2023-03-17T14:33:12.709Z,16.30
2023-03-17T14:36:16.955Z,11.93
2023-03-17T14:39:18.698Z,15.57
2023-03-17T14:41:46.108Z,14.77
2023-03-17T14:44:55.614Z,16.17
2023-03-17T14:47:59.842Z,12.43
2023-03-17T14:51:10.157Z,16.63
2023-03-17T14:53:43.345Z,13.20
2023-03-17T14:57:16.151Z,12.80
2023-03-17T15:00:22.305Z,21.93
2023-03-17T15:03:25.583Z,14.87
2023-03-17T15:06:25.029Z,11.43
2023-03-17T15:09:44.955Z,13.80
2023-03-17T15:12:46.768Z,10.37
2023-03-17T15:15:49.220Z,13.20
2023-03-17T15:18:20.128Z,10.90
2023-03-17T15:21:47.029Z,12.40
2023-03-17T15:24:57.750Z,11.93
2023-03-17T15:27:59.463Z,11.77
2023-03-17T15:30:47.529Z,14.40
2023-03-17T15:33:29.905Z,14.70
2023-03-17T15:36:36.707Z,9.60
2023-03-17T15:39:24.006Z,11.13
2023-03-17T15:42:11.400Z,9.83
2023-03-17T15:45:36.525Z,14.53
2023-03-17T15:48:23.871Z,13.03
2023-03-17T15:51:31.225Z,10.60
2023-03-17T15:53:58.576Z,18.80
2023-03-17T15:57:06.687Z,14.50
2023-03-17T16:00:08.521Z,14.13
2023-03-17T16:02:56.223Z,13.93
2023-03-17T16:06:03.360Z,10.50
2023-03-17T16:08:31.454Z,12.90
2023-03-17T16:10:58.440Z,11.60
2023-03-17T16:31:25.135Z,10.53
2023-03-17T16:34:35.341Z,9.97
2023-03-17T16:37:03.331Z,16.43
2023-03-17T16:40:05.116Z,13.17
2023-03-17T16:42:52.572Z,15.30
2023-03-17T16:45:27.439Z,15.37
2023-03-17T16:48:34.575Z,11.17
2023-03-17T16:51:22.058Z,18.83
2023-03-17T16:54:23.982Z,12.83
2023-03-17T16:56:51.369Z,14.27
2023-03-17T17:00:18.581Z,9.77
2023-03-17T17:03:05.866Z,15.27
2023-03-17T17:05:52.818Z,16.90
2023-03-17T17:08:40.053Z,9.23
2023-03-17T17:11:27.015Z,14.40
2023-03-17T17:14:08.904Z,15.77
2023-03-17T17:17:16.032Z,10.77
2023-03-17T17:20:22.935Z,19.83
2023-03-17T17:23:10.518Z,16.77
2023-03-17T17:25:57.499Z,15.07
2023-03-17T17:29:19.235Z,13.53
2023-03-17T17:32:23.587Z,16.50
2023-03-17T17:35:26.152Z,13.47
2023-03-17T17:38:38.814Z,19.23
2023-03-17T17:41:07.008Z,16.10
2023-03-17T17:43:54.150Z,15.53
2023-03-17T17:46:43.256Z,15.53
2023-03-17T17:49:31.694Z,9.43
2023-03-17T17:52:14.080Z,17.50
2023-03-17T17:55:21.175Z,12.83
2023-03-17T17:58:28.401Z,12.73
2023-03-17T18:01:19.852Z,14.10
2023-03-17T18:04:07.319Z,11.73
2023-03-17T18:07:29.048Z,12.93
2023-03-17T18:10:16.275Z,15.30
2023-03-17T18:13:03.191Z,15.27
2023-03-17T18:15:30.525Z,13.60
2023-03-17T18:18:57.800Z,15.23
2023-03-17T18:21:46.202Z,13.67
2023-03-17T18:24:36.163Z,15.40
2023-03-17T18:27:03.915Z,18.13
2023-03-17T18:30:10.772Z,15.57
2023-03-17T18:33:13.973Z,17.97
2023-03-17T18:36:16.171Z,16.97
2023-03-17T18:38:58.143Z,15.53
2023-03-17T18:42:05.244Z,16.70
2023-03-17T18:44:52.173Z,14.60
2023-03-17T18:47:41.750Z,14.90
2023-03-17T18:50:30.298Z,15.90
2023-03-17T18:52:58.025Z,18.17
2023-03-17T18:55:25.242Z,18.30
2023-03-17T18:58:47.238Z,21.33
2023-03-17T19:01:34.508Z,22.93
2023-03-17T19:04:46.072Z,19.90
2023-03-17T19:07:33.738Z,20.17
2023-03-17T19:10:20.959Z,15.33
2023-03-17T19:13:42.675Z,16.93
2023-03-17T19:17:04.357Z,18.67
2023-03-17T19:20:06.167Z,18.93
2023-03-17T19:22:34.933Z,23.03
2023-03-17T19:26:01.890Z,20.73
2023-03-17T19:28:49.325Z,24.17
2023-03-17T19:31:56.973Z,20.20
2023-03-17T19:34:38.804Z,19.77
2023-03-17T19:37:46.261Z,27.63
2023-03-17T19:40:33.622Z,40.00
2023-03-17T19:43:40.716Z,29.23
2023-03-17T19:46:42.831Z,19.73
2023-03-17T19:49:30.138Z,18.03
2023-03-17T19:52:36.997Z,19.47
2023-03-17T19:55:27.483Z,20.13
2023-03-17T19:57:54.524Z,18.13
2023-03-17T20:01:01.698Z,20.90
2023-03-17T20:04:10.523Z,19.80
2023-03-17T20:07:12.337Z,18.47
2023-03-17T20:09:59.541Z,22.33
2023-03-17T20:12:26.576Z,26.53
2023-03-17T20:15:09.337Z,21.90
2023-03-17T20:18:31.379Z,23.17
2023-03-17T20:21:33.717Z,21.43
2023-03-17T20:24:20.972Z,21.63
2023-03-17T20:26:49.508Z,24.40
2023-03-17T20:29:57.409Z,18.90
2023-03-17T20:32:44.521Z,20.60
2023-03-17T20:35:31.808Z,19.70
2023-03-17T20:38:19.479Z,22.40
2023-03-17T20:41:29.658Z,17.70
2023-03-17T20:44:37.302Z,18.17
2023-03-17T20:47:40.124Z,17.60
2023-03-17T20:50:22.941Z,16.60
2023-03-17T20:53:44.736Z,20.40
2023-03-17T20:56:35.054Z,21.03
2023-03-17T20:59:21.938Z,16.23
2023-03-17T21:02:09.175Z,17.97
2023-03-17T21:04:56.242Z,18.63
2023-03-17T21:07:38.224Z,23.57
2023-03-17T21:10:45.626Z,16.73
2023-03-17T21:13:33.084Z,22.17
2023-03-17T21:16:42.696Z,20.30
2023-03-17T21:19:24.885Z,15.93
2023-03-17T21:22:46.600Z,17.07
2023-03-17T21:25:48.426Z,17.57
2023-03-17T21:28:50.441Z,17.10
2023-03-17T21:31:17.772Z,20.60
2023-03-17T21:34:24.999Z,15.13
2023-03-17T21:37:27.355Z,16.70
2023-03-17T21:40:31.742Z,17.47
2023-03-17T21:43:19.066Z,18.00
2023-03-17T21:45:46.091Z,15.07
2023-03-17T21:49:08.069Z,21.07
2023-03-17T21:51:55.706Z,19.37
2023-03-17T21:55:02.603Z,23.30
2023-03-17T21:58:04.355Z,14.57
2023-03-17T22:00:46.411Z,13.07
2023-03-17T22:03:28.573Z,16.43
2023-03-17T22:06:50.309Z,19.67
2023-03-17T22:09:37.582Z,14.10
2023-03-17T22:12:04.960Z,15.43
2023-03-17T22:15:12.140Z,14.03
2023-03-17T22:17:59.249Z,15.10
2023-03-17T22:20:46.409Z,18.27
2023-03-17T22:23:14.029Z,17.43
2023-03-17T22:26:21.150Z,18.07
2023-03-17T22:29:28.052Z,14.53
2023-03-17T22:32:15.429Z,13.93
2023-03-17T22:34:42.673Z,13.23
2023-03-17T22:37:49.803Z,15.07
2023-03-17T22:40:56.722Z,16.10
2023-03-17T22:43:58.511Z,18.17
2023-03-17T22:46:26.103Z,14.60
2023-03-17T22:49:53.009Z,15.80
2023-03-17T22:52:54.792Z,13.90
2023-03-17T22:55:41.976Z,15.30
2023-03-17T22:58:29.301Z,14.17
2023-03-17T23:01:51.014Z,14.10
2023-03-17T23:04:33.765Z,13.77
2023-03-17T23:07:49.654Z,12.60
2023-03-17T23:10:51.991Z,13.40
2023-03-17T23:13:41.519Z,10.83
2023-03-17T23:16:28.614Z,203.43
2023-03-17T23:19:50.354Z,22.37
2023-03-17T23:22:52.778Z,14.17
2023-03-17T23:25:54.857Z,17.30
2023-03-17T23:28:44.373Z,10.00
2023-03-17T23:31:11.409Z,15.33
2023-03-17T23:33:39.260Z,14.87
2023-03-17T23:37:06.078Z,13.30
2023-03-17T23:39:53.331Z,13.83
2023-03-17T23:42:21.113Z,11.17
2023-03-17T23:45:28.339Z,10.60
2023-03-17T23:48:35.749Z,13.60
2023-03-17T23:51:23.962Z,11.83
2023-03-17T23:54:10.921Z,14.43
2023-03-17T23:57:18.019Z,13.10
